createdAt,value
2023-05-03T00:00:17.219Z,2.83
2023-05-03T00:02:48.723Z,3.42
2023-05-03T00:05:18.622Z,3.00
2023-05-03T00:07:47.682Z,3.35
2023-05-03T00:10:16.470Z,3.10
2023-05-03T00:12:50.789Z,3.50
2023-05-03T00:15:19.014Z,2.90
2023-05-03T00:17:47.373Z,3.50
2023-05-03T00:20:15.933Z,3.22
2023-05-03T00:22:45.895Z,2.95
2023-05-03T00:25:15.244Z,2.92
2023-05-03T00:27:46.484Z,3.20
2023-05-03T00:30:15.118Z,2.42
2023-05-03T00:32:43.450Z,3.13
2023-05-03T00:35:11.801Z,2.75
2023-05-03T00:37:40.396Z,3.10
2023-05-03T00:40:11.760Z,3.50
2023-05-03T00:42:39.936Z,3.00
2023-05-03T00:45:09.513Z,3.05
2023-05-03T00:47:38.283Z,2.83
2023-05-03T00:50:11.908Z,2.80
2023-05-03T00:52:41.699Z,3.33
2023-05-03T00:55:12.398Z,2.70
2023-05-03T00:57:40.916Z,3.00
2023-05-03T01:00:10.785Z,2.50
2023-05-03T01:02:39.682Z,2.72
2023-05-03T01:05:09.138Z,3.75
2023-05-03T01:07:46.665Z,2.72
2023-05-03T01:10:27.897Z,2.45
2023-05-03T01:13:01.638Z,3.15
2023-05-03T01:15:42.516Z,2.70
2023-05-03T01:18:16.025Z,3.20
2023-05-03T01:20:48.024Z,2.63
2023-05-03T01:23:29.517Z,3.10
2023-05-03T01:25:59.204Z,4.28
2023-05-03T01:28:27.481Z,3.22
2023-05-03T01:30:57.182Z,2.70
2023-05-03T01:33:36.533Z,3.20
2023-05-03T01:36:12.880Z,2.70
2023-05-03T01:38:42.292Z,2.97
2023-05-03T01:41:13.627Z,2.95
2023-05-03T01:43:42.847Z,3.10
2023-05-03T01:46:11.420Z,3.03
2023-05-03T01:48:40.045Z,2.78
2023-05-03T01:51:08.295Z,3.00
2023-05-03T01:53:37.646Z,3.05
2023-05-03T01:56:08.411Z,2.72
2023-05-03T01:58:38.210Z,2.90
2023-05-03T02:01:08.026Z,2.83
2023-05-03T02:03:36.494Z,2.97
2023-05-03T02:06:05.278Z,3.15
2023-05-03T02:08:33.514Z,3.22
2023-05-03T02:11:01.725Z,2.90
2023-05-03T02:13:29.945Z,3.08
2023-05-03T02:16:00.049Z,3.28
2023-05-03T02:18:31.363Z,3.10
2023-05-03T02:20:59.674Z,3.75
2023-05-03T02:23:28.096Z,3.00
2023-05-03T02:25:56.604Z,2.85
2023-05-03T02:28:25.084Z,2.40
2023-05-03T02:30:54.041Z,3.83
2023-05-03T02:33:24.317Z,2.83
2023-05-03T02:35:52.545Z,2.53
2023-05-03T02:38:20.749Z,2.63
2023-05-03T02:40:48.856Z,2.67
2023-05-03T02:43:17.034Z,2.78
2023-05-03T02:45:45.930Z,2.97
2023-05-03T02:48:14.152Z,2.63
2023-05-03T02:50:43.683Z,2.10
2023-05-03T02:53:11.949Z,2.47
2023-05-03T02:55:40.711Z,2.63
2023-05-03T02:58:10.052Z,2.80
2023-05-03T03:00:38.376Z,2.30
2023-05-03T03:03:06.712Z,2.92
2023-05-03T03:05:35.169Z,2.58
2023-05-03T03:08:05.667Z,2.90
2023-05-03T03:10:34.016Z,2.40
2023-05-03T03:13:02.894Z,2.95
2023-05-03T03:15:31.481Z,3.05
2023-05-03T03:17:59.685Z,2.75
2023-05-03T03:20:28.260Z,2.70
2023-05-03T03:22:56.436Z,3.00
2023-05-03T03:25:26.264Z,3.00
2023-05-03T03:27:54.363Z,3.00
2023-05-03T03:30:22.596Z,3.42
2023-05-03T03:32:50.755Z,2.65
2023-05-03T03:35:19.881Z,3.22
2023-05-03T03:37:48.040Z,3.53
2023-05-03T03:40:16.438Z,3.03
2023-05-03T03:42:46.177Z,3.33
2023-05-03T03:45:15.010Z,3.35
2023-05-03T03:47:43.171Z,3.15
2023-05-03T03:50:12.188Z,2.97
2023-05-03T03:52:40.461Z,2.88
2023-05-03T03:55:12.717Z,3.15
2023-05-03T03:57:41.413Z,3.38
2023-05-03T04:00:12.781Z,2.88
2023-05-03T04:02:41.048Z,3.55
2023-05-03T04:05:09.746Z,3.00
2023-05-03T04:07:37.974Z,3.92
2023-05-03T04:10:07.011Z,3.05
2023-05-03T04:12:35.163Z,3.33
2023-05-03T04:15:03.596Z,3.55
2023-05-03T04:17:34.949Z,3.28
2023-05-03T04:20:05.074Z,3.28
2023-05-03T04:22:33.919Z,3.00
2023-05-03T04:25:02.089Z,4.20
2023-05-03T04:27:30.312Z,4.80
2023-05-03T04:29:59.941Z,3.92
2023-05-03T04:32:28.629Z,3.38
2023-05-03T04:35:01.247Z,3.97
2023-05-03T04:37:30.104Z,3.75
2023-05-03T04:39:58.613Z,4.72
2023-05-03T04:42:27.018Z,3.90
2023-05-03T04:44:55.522Z,4.50
2023-05-03T04:47:25.496Z,4.72
2023-05-03T04:49:56.793Z,5.97
2023-05-03T04:52:27.447Z,4.60
2023-05-03T04:54:56.381Z,4.18
2023-05-03T04:57:24.727Z,4.93
2023-05-03T04:59:54.182Z,5.07
2023-05-03T05:02:23.034Z,6.18
2023-05-03T05:04:51.442Z,6.20
2023-05-03T05:07:19.658Z,5.32
2023-05-03T05:09:49.360Z,5.00
2023-05-03T05:12:17.764Z,5.07
2023-05-03T05:14:46.267Z,5.65
2023-05-03T05:17:14.764Z,5.72
2023-05-03T05:19:43.081Z,4.68
2023-05-03T05:22:11.376Z,4.60
2023-05-03T05:24:39.717Z,4.43
2023-05-03T05:27:09.277Z,3.70
2023-05-03T05:29:40.786Z,4.38
2023-05-03T05:32:09.105Z,4.07
2023-05-03T05:34:44.957Z,5.38
2023-05-03T05:37:13.875Z,2.88
2023-05-03T05:39:42.170Z,3.33
2023-05-03T05:42:12.381Z,3.58
2023-05-03T05:44:41.228Z,3.20
2023-05-03T05:47:10.065Z,3.60
2023-05-03T05:49:38.882Z,3.17
2023-05-03T05:52:07.837Z,2.90
2023-05-03T05:54:36.466Z,2.80
2023-05-03T05:57:04.862Z,2.53
2023-05-03T05:59:34.961Z,2.53
2023-05-03T06:02:03.340Z,2.10
2023-05-03T06:04:31.862Z,2.38
2023-05-03T06:07:00.129Z,2.95
2023-05-03T06:09:31.145Z,2.35
2023-05-03T06:11:59.404Z,2.13
2023-05-03T06:14:27.704Z,2.60
2023-05-03T06:16:57.394Z,2.95
2023-05-03T06:19:25.679Z,2.00
2023-05-03T06:21:54.023Z,2.80
2023-05-03T06:24:22.372Z,2.20
2023-05-03T06:26:51.383Z,2.10
2023-05-03T06:29:19.764Z,2.00
2023-05-03T06:31:48.387Z,2.22
2023-05-03T06:34:21.679Z,2.65
2023-05-03T06:36:50.010Z,1.70
2023-05-03T06:39:18.423Z,1.90
2023-05-03T06:41:46.715Z,2.38
2023-05-03T06:44:15.128Z,2.10
2023-05-03T06:46:43.517Z,2.65
2023-05-03T06:49:11.882Z,2.10
2023-05-03T06:51:42.366Z,1.80
2023-05-03T06:54:10.791Z,1.85
2023-05-03T06:56:39.105Z,1.50
2023-05-03T06:59:08.588Z,2.25
2023-05-03T07:01:36.944Z,1.70
2023-05-03T07:04:05.894Z,2.08
2023-05-03T07:06:44.378Z,2.20
2023-05-03T07:09:41.441Z,1.50
2023-05-03T07:12:12.035Z,1.38
2023-05-03T07:14:40.888Z,2.65
2023-05-03T07:17:09.466Z,1.80
2023-05-03T07:19:38.358Z,2.33
2023-05-03T07:22:06.644Z,2.08
2023-05-03T07:24:36.758Z,1.35
2023-05-03T07:27:05.220Z,1.90
2023-05-03T07:29:33.750Z,1.88
2023-05-03T07:32:02.462Z,1.63
2023-05-03T07:34:32.782Z,1.42
2023-05-03T07:37:01.099Z,1.60
2023-05-03T07:39:29.288Z,1.80
2023-05-03T07:41:58.947Z,1.60
2023-05-03T07:44:27.205Z,1.50
2023-05-03T07:46:55.636Z,1.67
2023-05-03T07:49:23.875Z,1.52
2023-05-03T07:51:52.517Z,1.50
2023-05-03T07:54:20.849Z,1.70
2023-05-03T07:56:49.785Z,1.40
2023-05-03T07:59:19.520Z,1.83
2023-05-03T08:01:48.063Z,1.65
2023-05-03T08:04:16.720Z,1.60
2023-05-03T08:06:45.462Z,1.58
2023-05-03T08:09:14.226Z,1.58
2023-05-03T08:11:44.188Z,1.92
2023-05-03T08:14:13.041Z,2.25
2023-05-03T08:16:42.854Z,1.80
2023-05-03T08:19:11.097Z,1.90
2023-05-03T08:21:39.291Z,1.92
2023-05-03T08:24:08.449Z,2.00
2023-05-03T08:26:37.715Z,3.30
2023-05-03T08:29:06.002Z,2.17
2023-05-03T08:31:35.280Z,1.90
2023-05-03T08:34:05.166Z,1.90
2023-05-03T08:36:33.626Z,1.52
2023-05-03T08:39:03.790Z,1.73
2023-05-03T08:41:32.829Z,1.90
2023-05-03T08:44:04.169Z,2.97
2023-05-03T08:46:32.738Z,1.90
2023-05-03T08:49:01.991Z,1.70
2023-05-03T08:51:32.126Z,1.70
2023-05-03T08:54:01.695Z,1.98
2023-05-03T08:56:34.493Z,2.20
2023-05-03T08:59:07.911Z,1.65
2023-05-03T09:01:37.763Z,2.40
2023-05-03T09:04:06.643Z,1.80
2023-05-03T09:06:37.214Z,1.90
2023-05-03T09:09:07.601Z,2.33
2023-05-03T09:11:37.605Z,2.15
2023-05-03T09:14:13.989Z,1.80
2023-05-03T09:16:44.826Z,2.15
2023-05-03T09:19:14.700Z,2.58
2023-05-03T09:21:47.043Z,2.20
2023-05-03T09:24:17.585Z,2.00
2023-05-03T09:26:47.119Z,1.90
2023-05-03T09:29:29.867Z,1.52
2023-05-03T09:32:02.081Z,3.35
2023-05-03T09:34:31.652Z,1.90
2023-05-03T09:37:01.572Z,1.80
2023-05-03T09:39:29.779Z,2.22
2023-05-03T09:41:58.070Z,1.60
2023-05-03T09:44:42.930Z,1.80
2023-05-03T09:47:11.810Z,1.85
2023-05-03T09:49:40.745Z,1.90
2023-05-03T09:52:11.253Z,1.73
2023-05-03T09:54:40.953Z,1.55
2023-05-03T09:57:10.361Z,2.10
2023-05-03T09:59:40.160Z,1.88
2023-05-03T10:02:09.059Z,1.65
2023-05-03T10:04:43.453Z,1.90
2023-05-03T10:07:18.847Z,2.13
2023-05-03T10:09:48.881Z,1.60
2023-05-03T10:12:17.841Z,1.60
2023-05-03T10:14:47.575Z,2.60
2023-05-03T10:17:31.986Z,2.22
2023-05-03T10:20:21.313Z,1.63
2023-05-03T10:23:10.948Z,2.05
2023-05-03T10:25:40.589Z,1.70
2023-05-03T10:28:09.633Z,2.15
2023-05-03T10:30:38.880Z,1.98
2023-05-03T10:33:34.883Z,1.92
2023-05-03T10:36:07.592Z,1.90
2023-05-03T10:38:38.609Z,1.80
2023-05-03T10:41:07.249Z,1.50
2023-05-03T10:43:46.880Z,1.77
2023-05-03T10:46:36.489Z,1.88
2023-05-03T10:49:19.567Z,1.60
2023-05-03T10:51:47.888Z,1.70
2023-05-03T10:54:19.571Z,1.40
2023-05-03T10:56:56.644Z,1.65
2023-05-03T10:59:25.914Z,1.60
2023-05-03T11:01:54.620Z,1.50
2023-05-03T11:04:35.156Z,2.03
2023-05-03T11:07:04.563Z,2.33
2023-05-03T11:09:35.831Z,2.08
2023-05-03T11:12:08.622Z,1.80
2023-05-03T11:14:37.441Z,1.70
2023-05-03T11:17:05.930Z,1.88
2023-05-03T11:19:35.293Z,2.03
2023-05-03T11:22:03.524Z,1.73
2023-05-03T11:24:32.074Z,1.67
2023-05-03T11:27:08.241Z,2.13
2023-05-03T11:29:38.023Z,5.50
2023-05-03T11:32:10.595Z,2.97
2023-05-03T11:34:40.684Z,1.70
2023-05-03T11:37:10.927Z,1.92
2023-05-03T11:39:39.435Z,2.53
2023-05-03T11:42:09.923Z,2.20
2023-05-03T11:44:38.676Z,2.30
2023-05-03T11:47:07.976Z,3.20
2023-05-03T11:49:36.517Z,2.05
2023-05-03T11:52:05.146Z,2.33
2023-05-03T11:54:33.613Z,2.10
2023-05-03T11:57:12.282Z,1.60
2023-05-03T11:59:42.722Z,1.90
2023-05-03T12:02:13.943Z,2.28
2023-05-03T12:04:46.269Z,2.63
2023-05-03T12:07:18.744Z,1.63
2023-05-03T12:10:01.239Z,1.60
2023-05-03T12:12:37.278Z,2.25
2023-05-03T12:15:15.571Z,1.85
2023-05-03T12:17:48.997Z,2.00
2023-05-03T12:22:52.629Z,2.05
2023-05-03T12:25:26.084Z,1.85
2023-05-03T12:28:15.479Z,2.17
2023-05-03T12:30:48.212Z,2.72
2023-05-03T12:33:21.651Z,2.47
2023-05-03T12:35:53.320Z,1.90
2023-05-03T12:38:24.191Z,2.10
2023-05-03T12:40:54.723Z,1.90
2023-05-03T12:43:23.336Z,2.15
2023-05-03T12:46:16.533Z,2.10
2023-05-03T12:48:46.117Z,1.95
2023-05-03T12:53:48.019Z,2.00
2023-05-03T12:56:17.346Z,2.35
2023-05-03T13:02:18.190Z,2.25
2023-05-03T13:06:45.205Z,2.35
2023-05-03T13:09:21.689Z,2.67
2023-05-03T13:11:55.646Z,2.78
2023-05-03T13:14:24.687Z,2.53
2023-05-03T13:16:54.362Z,1.75
2023-05-03T13:19:22.583Z,2.90
2023-05-03T13:21:50.988Z,2.53
2023-05-03T13:24:19.240Z,2.42
2023-05-03T13:26:48.082Z,2.35
2023-05-03T13:29:16.446Z,2.25
2023-05-03T13:31:44.747Z,2.35
2023-05-03T13:34:14.550Z,2.08
2023-05-03T13:36:42.871Z,1.98
2023-05-03T13:39:11.318Z,2.00
2023-05-03T13:41:42.230Z,2.47
2023-05-03T13:44:11.725Z,2.80
2023-05-03T13:46:41.508Z,2.20
2023-05-03T13:49:09.998Z,2.30
2023-05-03T13:51:39.886Z,2.05
2023-05-03T13:54:08.637Z,2.22
2023-05-03T13:56:38.021Z,2.13
2023-05-03T13:59:09.241Z,2.17
2023-05-03T14:01:43.115Z,2.00
2023-05-03T14:04:12.572Z,1.83
2023-05-03T14:06:42.749Z,1.73
2023-05-03T14:09:11.851Z,1.95
2023-05-03T14:11:41.610Z,1.77
2023-05-03T14:14:10.094Z,2.08
2023-05-03T14:16:41.403Z,2.05
2023-05-03T14:19:11.770Z,2.20
2023-05-03T14:21:42.988Z,1.88
2023-05-03T14:24:11.613Z,2.08
2023-05-03T14:26:39.866Z,1.80
2023-05-03T14:29:08.463Z,1.77
2023-05-03T14:31:36.947Z,2.17
2023-05-03T14:34:05.335Z,1.80
2023-05-03T14:36:38.779Z,2.58
2023-05-03T14:39:09.146Z,2.17
2023-05-03T14:41:39.262Z,2.00
2023-05-03T14:44:07.828Z,2.22
2023-05-03T14:46:36.655Z,2.05
2023-05-03T14:49:05.168Z,1.77
2023-05-03T14:51:33.777Z,2.00
2023-05-03T14:54:02.211Z,2.05
2023-05-03T14:56:32.787Z,1.90
2023-05-03T14:59:02.032Z,2.13
2023-05-03T15:01:30.312Z,2.15
2023-05-03T15:03:58.891Z,2.20
2023-05-03T15:06:28.760Z,2.38
2023-05-03T15:08:58.246Z,2.60
2023-05-03T15:11:27.616Z,1.88
2023-05-03T15:13:57.516Z,2.25
2023-05-03T15:16:25.987Z,2.00
2023-05-03T15:18:54.692Z,1.75
2023-05-03T15:21:23.793Z,2.28
2023-05-03T15:23:54.073Z,2.45
2023-05-03T15:26:24.437Z,1.73
2023-05-03T15:28:53.061Z,2.35
2023-05-03T15:31:23.558Z,2.00
2023-05-03T15:33:52.202Z,1.80
2023-05-03T15:36:23.591Z,2.00
2023-05-03T15:38:52.000Z,1.95
2023-05-03T15:41:20.752Z,1.67
2023-05-03T15:43:49.418Z,1.80
2023-05-03T15:46:18.028Z,1.50
2023-05-03T15:48:48.227Z,1.83
2023-05-03T15:51:16.585Z,1.58
2023-05-03T15:53:44.785Z,1.60
2023-05-03T15:56:13.385Z,1.70
2023-05-03T15:58:41.956Z,1.60
2023-05-03T16:01:10.718Z,1.50
2023-05-03T16:03:39.162Z,1.55
2023-05-03T16:06:09.477Z,2.33
2023-05-03T16:08:37.894Z,1.80
2023-05-03T16:11:06.707Z,1.70
2023-05-03T16:13:35.120Z,1.60
2023-05-03T16:16:03.381Z,1.60
2023-05-03T16:18:31.997Z,1.67
2023-05-03T16:21:01.383Z,2.17
2023-05-03T16:23:31.024Z,1.83
2023-05-03T16:25:59.308Z,1.40
2023-05-03T16:28:27.834Z,1.65
2023-05-03T16:30:56.585Z,1.95
2023-05-03T16:33:24.813Z,1.80
2023-05-03T16:35:53.135Z,1.60
2023-05-03T16:38:21.652Z,1.85
2023-05-03T16:40:51.289Z,1.70
2023-05-03T16:43:19.597Z,1.80
2023-05-03T16:45:57.412Z,1.65
2023-05-03T16:48:28.919Z,1.77
2023-05-03T16:50:57.405Z,1.90
2023-05-03T16:53:26.080Z,2.05
2023-05-03T16:55:56.587Z,2.20
2023-05-03T16:58:24.923Z,2.38
2023-05-03T17:00:53.543Z,1.70
2023-05-03T17:03:22.234Z,1.75
2023-05-03T17:05:50.681Z,2.25
2023-05-03T17:08:18.957Z,2.03
2023-05-03T17:10:47.166Z,1.88
2023-05-03T17:13:17.345Z,1.90
2023-05-03T17:15:45.756Z,2.58
2023-05-03T17:18:15.018Z,2.08
2023-05-03T17:20:43.342Z,1.80
2023-05-03T17:23:11.730Z,1.95
2023-05-03T17:25:39.983Z,2.20
2023-05-03T17:28:08.577Z,2.08
2023-05-03T17:30:39.239Z,2.47
2023-05-03T17:33:07.785Z,1.90
2023-05-03T17:35:36.006Z,2.13
2023-05-03T17:38:05.354Z,1.80
2023-05-03T17:40:33.875Z,1.95
2023-05-03T17:43:02.454Z,2.00
2023-05-03T17:45:30.727Z,2.15
2023-05-03T17:48:00.386Z,2.30
2023-05-03T17:50:28.645Z,1.90
2023-05-03T17:52:57.467Z,1.88
2023-05-03T17:55:26.108Z,2.60
2023-05-03T17:57:54.435Z,2.20
2023-05-03T18:00:23.107Z,2.65
2023-05-03T18:02:52.110Z,2.00
2023-05-03T18:05:22.221Z,2.20
2023-05-03T18:07:50.763Z,2.25
2023-05-03T18:10:19.240Z,2.00
2023-05-03T18:12:47.673Z,2.40
2023-05-03T18:15:16.517Z,2.03
2023-05-03T18:17:45.108Z,2.50
2023-05-03T18:20:14.715Z,2.35
2023-05-03T18:22:44.391Z,2.13
2023-05-03T18:25:12.712Z,2.33
2023-05-03T18:27:40.905Z,2.05
2023-05-03T18:30:10.594Z,2.22
2023-05-03T18:32:38.869Z,2.45
2023-05-03T18:35:07.929Z,2.00
2023-05-03T18:37:38.872Z,1.90
2023-05-03T18:40:10.264Z,2.25
2023-05-03T18:42:38.452Z,2.47
2023-05-03T18:45:07.374Z,2.70
2023-05-03T18:47:35.962Z,2.75
2023-05-03T18:50:05.072Z,2.13
2023-05-03T18:52:33.967Z,2.60
2023-05-03T18:55:02.490Z,2.35
2023-05-03T18:57:35.503Z,2.90
2023-05-03T19:00:06.667Z,3.08
2023-05-03T19:02:34.918Z,3.42
2023-05-03T19:05:03.346Z,3.58
2023-05-03T19:07:32.039Z,2.65
2023-05-03T19:10:01.055Z,2.78
2023-05-03T19:12:29.612Z,3.20
2023-05-03T19:15:00.041Z,2.95
2023-05-03T19:17:29.104Z,3.33
2023-05-03T19:19:58.688Z,3.10
2023-05-03T19:22:27.417Z,2.83
2023-05-03T19:24:55.852Z,3.83
2023-05-03T19:27:24.087Z,4.13
2023-05-03T19:29:56.737Z,3.60
2023-05-03T19:32:26.418Z,3.75
2023-05-03T19:34:54.942Z,3.33
2023-05-03T19:37:23.314Z,2.50
2023-05-03T19:39:51.879Z,2.47
2023-05-03T19:42:20.358Z,2.45
2023-05-03T19:44:48.551Z,2.10
2023-05-03T19:47:16.962Z,2.30
2023-05-03T19:49:46.629Z,1.90
2023-05-03T19:52:18.226Z,2.47
2023-05-03T19:54:46.400Z,2.17
2023-05-03T19:57:14.641Z,2.50
2023-05-03T19:59:43.146Z,2.42
2023-05-03T20:02:11.441Z,2.22
2023-05-03T20:04:39.666Z,2.47
2023-05-03T20:07:09.884Z,2.30
2023-05-03T20:09:41.214Z,2.55
2023-05-03T20:12:10.852Z,2.40
2023-05-03T20:14:39.375Z,2.95
2023-05-03T20:17:07.998Z,3.33
2023-05-03T20:19:36.229Z,2.45
2023-05-03T20:22:04.624Z,2.58
2023-05-03T20:24:34.277Z,2.60
2023-05-03T20:27:02.708Z,2.97
2023-05-03T20:29:30.962Z,2.47
2023-05-03T20:31:59.629Z,2.75
2023-05-03T20:34:28.353Z,2.17
2023-05-03T20:36:56.617Z,2.80
2023-05-03T20:39:25.342Z,2.60
2023-05-03T20:41:55.142Z,2.33
2023-05-03T20:44:23.487Z,2.50
2023-05-03T20:46:51.992Z,2.38
2023-05-03T20:49:20.189Z,2.30
2023-05-03T20:51:48.799Z,2.83
2023-05-03T20:54:17.562Z,2.30
2023-05-03T20:56:45.844Z,2.30
2023-05-03T20:59:17.079Z,2.55
2023-05-03T21:01:46.428Z,2.45
2023-05-03T21:04:15.182Z,2.10
2023-05-03T21:06:45.212Z,2.78
2023-05-03T21:09:13.639Z,2.58
2023-05-03T21:11:42.487Z,2.55
2023-05-03T21:14:11.899Z,3.05
2023-05-03T21:16:41.988Z,2.90
2023-05-03T21:19:10.779Z,2.83
2023-05-03T21:21:39.347Z,3.55
2023-05-03T21:24:08.972Z,2.78
2023-05-03T21:26:37.344Z,2.75
2023-05-03T21:29:06.155Z,2.63
2023-05-03T21:31:34.467Z,2.75
2023-05-03T21:34:04.984Z,3.08
2023-05-03T21:36:33.615Z,2.53
2023-05-03T21:39:02.003Z,2.85
2023-05-03T21:41:30.560Z,2.67
2023-05-03T21:43:59.163Z,2.80
2023-05-03T21:46:27.488Z,2.70
2023-05-03T21:48:55.774Z,2.60
2023-05-03T21:51:25.971Z,3.17
2023-05-03T21:53:54.626Z,3.42
2023-05-03T21:56:22.812Z,2.97
2023-05-03T21:58:51.071Z,3.05
2023-05-03T22:01:21.658Z,3.15
2023-05-03T22:03:50.532Z,3.20
2023-05-03T22:06:19.125Z,3.22
2023-05-03T22:08:49.253Z,3.58
2023-05-03T22:11:21.017Z,3.13
2023-05-03T22:14:05.959Z,3.47
2023-05-03T22:16:36.151Z,2.67
2023-05-03T22:19:05.465Z,3.47
2023-05-03T22:21:35.277Z,3.03
2023-05-03T22:24:07.693Z,2.67
2023-05-03T22:26:37.020Z,2.58
2023-05-03T22:29:06.122Z,2.72
2023-05-03T22:31:34.577Z,3.40
2023-05-03T22:34:03.196Z,2.97
2023-05-03T22:36:31.534Z,2.88
2023-05-03T22:39:05.089Z,2.50
2023-05-03T22:41:35.021Z,3.03
2023-05-03T22:44:03.591Z,2.63
2023-05-03T22:46:31.929Z,3.13
2023-05-03T22:49:00.176Z,2.78
2023-05-03T22:51:28.706Z,2.90
2023-05-03T22:53:57.001Z,2.85
2023-05-03T22:56:28.120Z,2.92
2023-05-03T22:58:58.500Z,2.58
2023-05-03T23:01:27.253Z,3.30
2023-05-03T23:03:55.820Z,2.70
2023-05-03T23:06:25.040Z,3.35
2023-05-03T23:08:53.363Z,3.60
2023-05-03T23:11:22.717Z,2.88
2023-05-03T23:13:51.516Z,3.08
2023-05-03T23:16:21.488Z,3.20
2023-05-03T23:18:49.719Z,3.25
2023-05-03T23:21:18.568Z,3.85
2023-05-03T23:23:47.037Z,3.40
2023-05-03T23:26:15.704Z,3.28
2023-05-03T23:28:44.395Z,3.67
2023-05-03T23:31:13.130Z,3.78
2023-05-03T23:33:43.627Z,3.22
2023-05-03T23:36:12.409Z,3.78
2023-05-03T23:38:40.660Z,3.30
2023-05-03T23:41:08.967Z,3.75
2023-05-03T23:43:37.176Z,3.72
2023-05-03T23:46:05.510Z,3.67
2023-05-03T23:48:33.767Z,3.47
2023-05-03T23:51:03.653Z,4.20
2023-05-03T23:53:32.162Z,4.07
2023-05-03T23:56:00.721Z,4.32
2023-05-03T23:58:29.376Z,3.97
